createdAt,value
2023-01-05T00:02:30.133Z,91.08
2023-01-05T00:04:58.116Z,90.93
2023-01-05T00:07:26.069Z,90.91
2023-01-05T00:09:54.094Z,90.96
2023-01-05T00:12:45.484Z,90.90
2023-01-05T00:15:30.841Z,90.28
2023-01-05T00:18:16.732Z,90.49
2023-01-05T00:21:02.698Z,90.26
2023-01-05T00:23:35.156Z,89.67
2023-01-05T00:26:02.067Z,89.73
2023-01-05T00:28:34.078Z,90.19
2023-01-05T00:31:26.065Z,90.04
2023-01-05T00:33:54.082Z,90.16
2023-01-05T00:36:22.080Z,89.83
2023-01-05T00:38:54.224Z,89.89
2023-01-05T00:41:22.083Z,89.45
2023-01-05T00:44:14.900Z,89.45
2023-01-05T00:46:42.087Z,89.71
2023-01-05T00:49:10.152Z,89.89
2023-01-05T00:51:38.081Z,89.48
2023-01-05T00:54:06.631Z,89.52
2023-01-05T00:56:34.130Z,89.56
2023-01-05T01:02:18.453Z,89.14
2023-01-05T01:05:10.715Z,89.06
2023-01-05T01:07:38.096Z,89.34
2023-01-05T01:10:07.914Z,89.08
2023-01-05T01:15:09.047Z,88.49
2023-01-05T01:17:42.100Z,88.65
2023-01-05T01:20:10.261Z,88.56
2023-01-05T01:22:39.738Z,88.64
2023-01-05T01:25:10.510Z,88.43
2023-01-05T01:27:39.363Z,88.72
2023-01-05T01:30:10.293Z,88.25
2023-01-05T01:32:43.104Z,87.67
2023-01-05T01:35:13.249Z,87.41
2023-01-05T01:37:43.552Z,87.78
2023-01-05T01:40:13.346Z,88.18
2023-01-05T01:42:44.623Z,87.35
2023-01-05T01:45:24.762Z,87.07
2023-01-05T01:47:58.105Z,87.84
2023-01-05T01:50:39.054Z,87.81
2023-01-05T01:53:16.776Z,87.62
2023-01-05T01:55:46.714Z,87.74
2023-01-05T01:58:21.395Z,88.01
2023-01-05T02:00:54.821Z,87.25
2023-01-05T02:03:22.133Z,86.42
2023-01-05T02:05:50.096Z,87.35
2023-01-05T02:08:25.398Z,87.05
2023-01-05T02:11:10.303Z,87.08
2023-01-05T02:13:58.480Z,86.06
2023-01-05T02:17:10.235Z,86.36
2023-01-05T02:20:27.836Z,86.49
2023-01-05T02:23:14.909Z,86.85
2023-01-05T02:25:59.136Z,87.46
2023-01-05T02:28:51.000Z,87.17
2023-01-05T02:31:22.628Z,86.67
2023-01-05T02:34:33.564Z,86.91
2023-01-05T02:37:48.144Z,87.06
2023-01-05T02:40:21.837Z,87.02
2023-01-05T02:42:53.737Z,87.06
2023-01-05T02:45:23.119Z,87.31
2023-01-05T02:47:56.213Z,86.97
2023-01-05T02:50:44.899Z,86.90
2023-01-05T02:53:20.320Z,86.69
2023-01-05T02:55:54.572Z,86.73
2023-01-05T02:59:00.892Z,86.10
2023-01-05T03:01:34.423Z,85.82
2023-01-05T03:07:40.559Z,86.51
2023-01-05T03:10:32.809Z,86.17
2023-01-05T03:13:30.304Z,85.27
2023-01-05T03:16:01.978Z,85.67
2023-01-05T03:18:31.494Z,86.09
2023-01-05T03:21:01.784Z,85.96
2023-01-05T03:23:48.918Z,85.14
2023-01-05T03:26:34.851Z,85.50
2023-01-05T03:29:22.716Z,86.13
2023-01-05T03:32:17.762Z,85.94
2023-01-05T03:35:13.984Z,85.98
2023-01-05T03:37:59.199Z,85.98
2023-01-05T03:40:34.195Z,86.52
2023-01-05T03:46:02.484Z,85.15
2023-01-05T03:48:30.264Z,85.48
2023-01-05T03:51:02.276Z,86.32
2023-01-05T03:53:30.162Z,85.96
2023-01-05T03:56:22.082Z,86.51
2023-01-05T03:59:21.160Z,86.28
2023-01-05T04:01:50.296Z,85.76
2023-01-05T04:04:23.174Z,85.28
2023-01-05T04:06:50.168Z,85.88
2023-01-05T04:09:18.082Z,85.49
2023-01-05T04:11:46.148Z,85.37
2023-01-05T04:14:14.177Z,85.83
2023-01-05T04:16:42.115Z,85.45
2023-01-05T04:19:20.105Z,85.53
2023-01-05T04:21:50.144Z,85.92
2023-01-05T04:24:18.180Z,85.76
2023-01-05T04:26:46.353Z,86.78
2023-01-05T04:29:38.118Z,86.19
2023-01-05T04:32:06.511Z,86.25
2023-01-05T04:34:39.179Z,85.74
2023-01-05T04:37:08.084Z,85.94
2023-01-05T04:39:36.172Z,86.10
2023-01-05T04:42:04.322Z,86.02
2023-01-05T04:44:34.137Z,86.43
2023-01-05T04:47:04.228Z,86.22
2023-01-05T04:49:47.699Z,85.79
2023-01-05T04:52:40.242Z,85.71
2023-01-05T04:58:11.723Z,85.73
2023-01-05T05:00:44.288Z,86.63
2023-01-05T05:03:21.434Z,86.38
2023-01-05T05:05:50.115Z,86.56
2023-01-05T05:08:18.103Z,86.41
2023-01-05T05:10:46.148Z,86.35
2023-01-05T05:13:14.136Z,86.70
2023-01-05T05:18:36.117Z,86.48
2023-01-05T05:21:06.109Z,86.57
2023-01-05T05:23:40.158Z,86.50
2023-01-05T05:26:09.184Z,86.91
2023-01-05T05:28:38.114Z,86.81
2023-01-05T05:31:06.135Z,86.62
2023-01-05T05:33:34.121Z,86.80
2023-01-05T05:36:02.094Z,86.40
2023-01-05T05:38:34.091Z,86.61
2023-01-05T05:41:07.319Z,86.71
2023-01-05T05:43:34.169Z,86.92
2023-01-05T05:46:07.689Z,86.95
2023-01-05T05:48:36.172Z,86.71
2023-01-05T05:51:09.613Z,86.65
2023-01-05T05:53:38.137Z,86.53
2023-01-05T05:59:01.629Z,86.46
2023-01-05T06:01:30.308Z,86.45
2023-01-05T06:03:58.134Z,86.10
2023-01-05T06:06:26.138Z,86.21
2023-01-05T06:11:46.167Z,86.35
2023-01-05T06:14:14.189Z,85.71
2023-01-05T06:16:42.199Z,86.13
2023-01-05T06:22:02.106Z,86.27
2023-01-05T06:24:30.116Z,86.68
2023-01-05T06:26:58.188Z,86.68
2023-01-05T06:29:26.091Z,86.22
2023-01-05T06:31:54.135Z,86.42
2023-01-05T06:34:22.735Z,86.44
2023-01-05T06:36:50.182Z,86.74
2023-01-05T06:39:18.071Z,86.26
2023-01-05T06:41:55.083Z,86.81
2023-01-05T06:44:22.114Z,86.19
2023-01-05T06:46:55.096Z,86.70
2023-01-05T06:49:22.195Z,86.27
2023-01-05T06:51:50.149Z,86.10
2023-01-05T06:54:18.132Z,86.24
2023-01-05T06:56:46.190Z,86.31
2023-01-05T06:59:14.174Z,85.76
2023-01-05T07:01:42.276Z,86.08
2023-01-05T07:04:10.197Z,86.34
2023-01-05T07:06:38.159Z,86.26
2023-01-05T07:09:30.122Z,85.75
2023-01-05T07:12:02.117Z,85.60
2023-01-05T07:14:30.172Z,85.54
2023-01-05T07:16:58.553Z,85.83
2023-01-05T07:19:26.481Z,85.04
2023-01-05T07:21:56.914Z,84.97
2023-01-05T07:24:24.187Z,84.10
2023-01-05T07:26:52.098Z,84.83
2023-01-05T07:29:20.123Z,84.86
2023-01-05T07:32:14.301Z,84.16
2023-01-05T07:34:47.603Z,84.93
2023-01-05T07:40:14.175Z,84.45
2023-01-05T07:42:42.783Z,84.11
2023-01-05T07:45:10.623Z,84.66
2023-01-05T07:47:39.270Z,84.49
2023-01-05T07:50:06.973Z,84.89
2023-01-05T07:52:39.127Z,84.90
2023-01-05T07:55:06.600Z,85.58
2023-01-05T07:57:34.165Z,85.62
2023-01-05T08:00:02.355Z,85.77
2023-01-05T08:02:40.517Z,85.84
2023-01-05T08:05:08.820Z,86.20
2023-01-05T08:07:37.174Z,86.16
2023-01-05T08:10:31.888Z,86.23
2023-01-05T08:13:23.642Z,85.92
2023-01-05T08:15:53.031Z,85.83
2023-01-05T08:18:25.811Z,85.46
2023-01-05T08:21:22.207Z,85.64
2023-01-05T08:23:59.195Z,86.50
2023-01-05T08:26:26.314Z,86.62
2023-01-05T08:28:54.136Z,87.17
2023-01-05T08:31:29.345Z,87.80
2023-01-05T08:36:55.239Z,87.75
2023-01-05T08:39:27.436Z,88.11
2023-01-05T08:42:02.118Z,88.07
2023-01-05T08:47:28.681Z,89.09
2023-01-05T08:49:56.103Z,88.95
2023-01-05T08:52:28.398Z,89.07
2023-01-05T08:55:00.280Z,89.25
2023-01-05T08:57:28.196Z,89.34
2023-01-05T09:00:00.191Z,89.23
2023-01-05T09:02:33.391Z,89.17
2023-01-05T09:05:00.186Z,89.68
2023-01-05T09:07:28.527Z,89.64
2023-01-05T09:09:56.305Z,89.14
2023-01-05T09:12:27.857Z,89.13
2023-01-05T09:14:58.158Z,88.48
2023-01-05T09:17:35.256Z,88.40
2023-01-05T09:20:03.793Z,88.12
2023-01-05T09:22:37.505Z,88.29
2023-01-05T09:25:06.539Z,87.59
2023-01-05T09:27:34.283Z,87.87
2023-01-05T09:30:02.888Z,87.67
2023-01-05T09:32:30.198Z,87.52
2023-01-05T09:35:03.440Z,86.95
2023-01-05T09:37:37.804Z,87.24
2023-01-05T09:40:06.894Z,87.23
2023-01-05T09:42:36.469Z,87.34
2023-01-05T09:45:12.677Z,87.11
2023-01-05T09:47:48.191Z,87.45
2023-01-05T09:50:25.390Z,86.96
2023-01-05T09:53:00.208Z,86.96
2023-01-05T09:55:31.659Z,86.96
2023-01-05T09:58:20.697Z,87.31
2023-01-05T10:04:05.078Z,87.13
2023-01-05T10:06:39.099Z,86.62
2023-01-05T10:09:08.157Z,86.66
2023-01-05T10:12:05.724Z,86.42
2023-01-05T10:14:39.753Z,86.65
2023-01-05T10:20:12.309Z,86.84
2023-01-05T10:22:48.131Z,87.28
2023-01-05T10:25:21.125Z,86.34
2023-01-05T10:28:32.938Z,86.80
2023-01-05T10:32:03.812Z,86.81
2023-01-05T10:34:45.661Z,86.67
2023-01-05T10:37:25.294Z,86.19
2023-01-05T10:40:39.318Z,85.31
2023-01-05T10:43:46.220Z,85.44
2023-01-05T10:46:47.235Z,84.98
2023-01-05T10:49:26.764Z,84.86
2023-01-05T10:51:58.820Z,84.15
2023-01-05T10:54:35.910Z,85.58
2023-01-05T10:57:31.905Z,84.98
2023-01-05T11:00:09.306Z,84.87
2023-01-05T11:02:50.362Z,84.90
2023-01-05T11:05:35.637Z,85.43
2023-01-05T11:08:07.263Z,85.72
2023-01-05T11:10:48.141Z,85.59
2023-01-05T11:13:45.841Z,85.11
2023-01-05T11:16:40.219Z,85.06
2023-01-05T11:19:16.173Z,85.25
2023-01-05T11:21:46.093Z,85.46
2023-01-05T11:24:23.225Z,85.30
2023-01-05T11:26:52.625Z,84.96
2023-01-05T11:29:20.227Z,85.11
2023-01-05T11:31:59.037Z,85.48
2023-01-05T11:34:46.850Z,85.20
2023-01-05T11:37:26.435Z,85.00
2023-01-05T11:39:57.000Z,84.88
2023-01-05T11:42:35.749Z,85.15
2023-01-05T11:45:37.389Z,85.35
2023-01-05T11:48:09.543Z,85.37
2023-01-05T11:50:48.237Z,84.98
2023-01-05T11:53:35.024Z,85.05
2023-01-05T11:56:08.068Z,85.11
2023-01-05T11:58:44.327Z,85.01
2023-01-05T12:01:40.064Z,85.06
2023-01-05T12:04:29.044Z,84.41
2023-01-05T12:07:11.258Z,85.36
2023-01-05T12:10:04.377Z,84.77
2023-01-05T12:12:38.752Z,85.55
2023-01-05T12:15:21.052Z,85.25
2023-01-05T12:18:29.520Z,85.37
2023-01-05T12:21:22.281Z,84.88
2023-01-05T12:23:58.941Z,85.24
2023-01-05T12:27:16.730Z,84.75
2023-01-05T12:31:53.403Z,84.26
2023-01-05T12:36:22.861Z,85.28
2023-01-05T12:39:20.327Z,85.04
2023-01-05T12:42:03.516Z,84.73
2023-01-05T12:44:50.918Z,84.74
2023-01-05T12:47:39.684Z,85.33
2023-01-05T12:50:30.563Z,84.07
2023-01-05T12:53:25.251Z,85.10
2023-01-05T12:55:56.322Z,84.18
2023-01-05T12:58:30.675Z,85.55
2023-01-05T13:01:01.038Z,84.10
2023-01-05T13:04:04.135Z,84.28
2023-01-05T13:06:37.540Z,84.89
2023-01-05T13:09:25.906Z,83.74
2023-01-05T13:12:04.373Z,83.27
2023-01-05T13:14:36.253Z,83.66
2023-01-05T13:17:17.023Z,84.02
2023-01-05T13:20:05.630Z,83.81
2023-01-05T13:22:40.547Z,83.74
2023-01-05T13:25:20.437Z,83.63
2023-01-05T13:28:26.016Z,82.89
2023-01-05T13:31:14.699Z,83.22
2023-01-05T13:33:48.508Z,84.13
2023-01-05T13:36:37.430Z,84.24
2023-01-05T13:39:30.872Z,83.69
2023-01-05T13:42:04.975Z,84.28
2023-01-05T13:44:54.073Z,84.13
2023-01-05T13:50:47.882Z,83.59
2023-01-05T13:53:25.765Z,83.40
2023-01-05T13:56:07.273Z,83.58
2023-01-05T14:01:41.062Z,83.71
2023-01-05T14:04:20.906Z,83.95
2023-01-05T14:06:58.947Z,83.91
2023-01-05T14:09:37.140Z,84.12
2023-01-05T14:12:16.356Z,83.72
2023-01-05T14:15:02.568Z,84.07
2023-01-05T14:17:53.386Z,83.38
2023-01-05T14:20:32.401Z,83.55
2023-01-05T14:23:01.714Z,83.90
2023-01-05T14:25:54.395Z,83.94
2023-01-05T14:28:33.149Z,83.92
2023-01-05T14:31:15.991Z,84.42
2023-01-05T14:34:13.502Z,84.11
2023-01-05T14:36:56.654Z,84.34
2023-01-05T14:39:40.157Z,84.23
2023-01-05T14:42:11.277Z,83.83
2023-01-05T14:47:46.057Z,84.41
2023-01-05T14:50:38.654Z,84.39
2023-01-05T14:53:11.562Z,84.31
2023-01-05T14:56:04.381Z,84.39
2023-01-05T14:58:38.385Z,84.86
2023-01-05T15:01:18.550Z,84.71
2023-01-05T15:04:05.806Z,84.18
2023-01-05T15:07:08.401Z,84.30
2023-01-05T15:09:45.248Z,84.68
2023-01-05T15:16:03.717Z,84.55
2023-01-05T15:18:53.690Z,84.51
2023-01-05T15:21:48.910Z,84.99
2023-01-05T15:24:16.239Z,85.12
2023-01-05T15:27:15.125Z,85.04
2023-01-05T15:30:03.801Z,84.87
2023-01-05T15:32:40.376Z,85.11
2023-01-05T15:38:26.239Z,85.21
2023-01-05T15:41:04.614Z,85.24
2023-01-05T15:43:42.634Z,85.16
2023-01-05T15:46:11.404Z,84.94
2023-01-05T15:48:45.073Z,85.16
2023-01-05T15:51:26.648Z,85.23
2023-01-05T15:54:04.000Z,84.97
2023-01-05T15:56:35.023Z,85.05
2023-01-05T15:59:04.102Z,85.07
2023-01-05T16:01:37.011Z,85.33
2023-01-05T16:04:19.411Z,84.75
2023-01-05T16:06:48.764Z,84.99
2023-01-05T16:12:29.990Z,85.13
2023-01-05T16:15:04.261Z,84.83
2023-01-05T16:17:37.842Z,85.10
2023-01-05T16:23:20.784Z,85.39
2023-01-05T16:25:51.046Z,85.10
2023-01-05T16:28:25.525Z,85.21
2023-01-05T16:31:20.577Z,85.50
2023-01-05T16:34:06.940Z,85.29
2023-01-05T16:36:39.168Z,85.29
2023-01-05T16:39:23.413Z,85.18
2023-01-05T16:42:08.839Z,85.43
2023-01-05T16:44:36.569Z,85.49
2023-01-05T16:47:07.224Z,85.70
2023-01-05T16:50:00.343Z,85.45
2023-01-05T16:52:35.924Z,85.64
2023-01-05T16:55:29.035Z,85.71
2023-01-05T16:57:57.804Z,85.42
2023-01-05T17:00:26.159Z,85.90
2023-01-05T17:03:30.895Z,85.45
2023-01-05T17:06:05.069Z,85.80
2023-01-05T17:08:36.130Z,85.69
2023-01-05T17:11:09.461Z,85.74
2023-01-05T17:13:45.459Z,85.60
2023-01-05T17:16:13.620Z,85.90
2023-01-05T17:18:42.244Z,85.82
2023-01-05T17:21:14.111Z,85.83
2023-01-05T17:23:47.284Z,85.91
2023-01-05T17:26:20.690Z,85.72
2023-01-05T17:28:54.189Z,86.03
2023-01-05T17:31:25.420Z,85.67
2023-01-05T17:34:24.656Z,85.64
2023-01-05T17:37:21.497Z,86.26
2023-01-05T17:39:50.103Z,85.73
2023-01-05T17:42:56.675Z,86.15
2023-01-05T17:45:27.224Z,86.44
2023-01-05T17:47:54.933Z,85.85
2023-01-05T17:50:27.882Z,86.64
2023-01-05T17:53:00.671Z,86.50
2023-01-05T17:55:29.657Z,86.69
2023-01-05T17:57:58.930Z,86.21
2023-01-05T18:00:29.482Z,86.59
2023-01-05T18:02:56.481Z,86.68
2023-01-05T18:05:24.247Z,86.46
2023-01-05T18:07:52.998Z,86.73
2023-01-05T18:10:22.344Z,86.54
2023-01-05T18:12:55.519Z,86.44
2023-01-05T18:15:24.136Z,86.46
2023-01-05T18:17:52.245Z,86.65
2023-01-05T18:20:21.365Z,86.81
2023-01-05T18:22:50.232Z,86.75
2023-01-05T18:25:18.314Z,86.97
2023-01-05T18:27:46.257Z,86.74
2023-01-05T18:30:14.403Z,86.60
2023-01-05T18:32:42.458Z,86.82
2023-01-05T18:35:10.890Z,86.97
2023-01-05T18:37:44.130Z,87.05
2023-01-05T18:40:13.249Z,86.98
2023-01-05T18:45:38.640Z,86.95
2023-01-05T18:48:06.418Z,86.97
2023-01-05T18:51:00.162Z,87.15
2023-01-05T18:53:32.106Z,87.08
2023-01-05T18:56:00.072Z,87.06
2023-01-05T18:58:33.212Z,87.19
2023-01-05T19:01:05.895Z,87.14
2023-01-05T19:03:34.456Z,87.32
2023-01-05T19:06:07.571Z,87.16
2023-01-05T19:08:36.645Z,87.29
2023-01-05T19:11:18.500Z,87.17
2023-01-05T19:13:49.079Z,87.49
2023-01-05T19:16:23.573Z,87.44
2023-01-05T19:18:57.886Z,87.22
2023-01-05T19:21:26.451Z,87.29
2023-01-05T19:23:56.332Z,87.56
2023-01-05T19:26:29.869Z,87.57
2023-01-05T19:29:07.663Z,87.66
2023-01-05T19:31:40.252Z,87.69
2023-01-05T19:34:14.753Z,87.60
2023-01-05T19:36:42.261Z,87.69
2023-01-05T19:39:16.729Z,87.87
2023-01-05T19:41:46.827Z,87.78
2023-01-05T19:44:16.774Z,87.93
2023-01-05T19:46:45.561Z,88.13
2023-01-05T19:49:38.206Z,88.27
2023-01-05T19:52:06.131Z,88.48
2023-01-05T19:54:34.170Z,88.24
2023-01-05T19:57:02.171Z,88.09
2023-01-05T19:59:33.435Z,88.04
2023-01-05T20:02:07.829Z,88.14
2023-01-05T20:04:36.186Z,88.18
2023-01-05T20:07:30.099Z,87.96
2023-01-05T20:09:58.226Z,87.72
2023-01-05T20:12:26.163Z,87.77
2023-01-05T20:15:20.127Z,87.21
2023-01-05T20:21:08.208Z,87.06
2023-01-05T20:23:38.527Z,87.19
2023-01-05T20:26:12.588Z,87.22
2023-01-05T20:28:46.860Z,87.08
2023-01-05T20:31:26.972Z,87.21
2023-01-05T20:36:54.873Z,87.58
2023-01-05T20:39:59.762Z,87.57
2023-01-05T20:42:30.568Z,87.77
2023-01-05T20:45:22.192Z,87.74
2023-01-05T20:47:50.154Z,88.05
2023-01-05T20:50:18.254Z,88.17
2023-01-05T20:52:48.335Z,88.01
2023-01-05T20:55:24.136Z,87.97
2023-01-05T20:57:57.095Z,88.10
2023-01-05T21:00:25.250Z,88.37
2023-01-05T21:02:54.196Z,88.11
2023-01-05T21:05:22.183Z,88.01
2023-01-05T21:10:43.489Z,88.28
2023-01-05T21:13:43.375Z,88.09
2023-01-05T21:16:15.639Z,88.30
2023-01-05T21:19:09.876Z,88.87
2023-01-05T21:21:38.269Z,88.16
2023-01-05T21:24:09.139Z,88.04
2023-01-05T21:26:43.144Z,87.88
2023-01-05T21:29:13.611Z,87.92
2023-01-05T21:31:44.911Z,88.10
2023-01-05T21:34:23.166Z,88.12
2023-01-05T21:36:50.194Z,87.88
2023-01-05T21:39:47.257Z,87.75
2023-01-05T21:45:25.478Z,88.54
2023-01-05T21:47:54.004Z,88.47
2023-01-05T21:50:40.608Z,89.09
2023-01-05T21:53:32.110Z,88.53
2023-01-05T21:56:19.639Z,88.90
2023-01-05T21:58:48.078Z,88.63
2023-01-05T22:01:16.254Z,88.76
2023-01-05T22:03:45.613Z,88.67
2023-01-05T22:06:18.941Z,88.63
2023-01-05T22:08:46.631Z,89.01
2023-01-05T22:11:20.106Z,89.11
2023-01-05T22:13:48.185Z,88.80
2023-01-05T22:16:16.166Z,88.55
2023-01-05T22:18:55.830Z,88.91
2023-01-05T22:21:49.239Z,88.65
2023-01-05T22:24:21.184Z,88.47
2023-01-05T22:26:48.317Z,88.91
2023-01-05T22:29:16.738Z,88.47
2023-01-05T22:31:45.312Z,88.49
2023-01-05T22:34:36.740Z,91.18
2023-01-05T22:37:04.116Z,89.37
2023-01-05T22:39:37.127Z,89.19
2023-01-05T22:42:04.233Z,88.93
2023-01-05T22:44:37.156Z,89.13
2023-01-05T22:47:04.241Z,91.56
2023-01-05T22:49:32.187Z,90.94
2023-01-05T22:52:00.452Z,90.55
2023-01-05T22:54:55.357Z,90.23
2023-01-05T22:57:26.475Z,89.95
2023-01-05T22:59:56.428Z,89.34
2023-01-05T23:02:25.889Z,89.39
2023-01-05T23:05:25.430Z,90.50
2023-01-05T23:07:52.570Z,90.28
2023-01-05T23:10:21.606Z,89.92
2023-01-05T23:12:50.107Z,90.32
2023-01-05T23:15:18.072Z,90.67
2023-01-05T23:18:17.148Z,89.98
2023-01-05T23:20:44.142Z,89.59
2023-01-05T23:23:12.105Z,90.20
2023-01-05T23:25:46.403Z,90.02
2023-01-05T23:28:14.537Z,89.50
2023-01-05T23:30:42.337Z,89.46
2023-01-05T23:36:03.257Z,89.77
2023-01-05T23:38:31.018Z,90.44
2023-01-05T23:40:58.912Z,90.96
2023-01-05T23:43:28.189Z,90.82
2023-01-05T23:46:07.038Z,91.61
2023-01-05T23:48:36.009Z,90.75
2023-01-05T23:53:58.139Z,90.06
2023-01-05T23:56:33.869Z,90.09
2023-01-05T23:59:06.381Z,90.10
